GMML

Hassan I Airport

El Aaiún, Western Sahara
METAR GMML 181600Z 08015KT CAVOK 25/05 Q1020 NOSIG
Observed Flight Rules
Dec-18 @ 16:00 UTC (24 minutes ago) Visual Flight Rules
Wind Visibility Clouds
80° at 15 knots 10,000+ meters
  • Clear skies
Temperatures Readings
Current 25°C / 77°F
Dewpoint 5°C / 41°F
Humidity 28%
Altimeter 30.12" Hg
Pressure 1020 hPa
Elevation 6
METAR GMML 181600Z 08015KT CAVOK 25/05 Q1020 NOSIG
Observed Flight Rules
Dec-18 @ 16:00 UTC
(24 minutes ago)
VFR
Wind Visibility
80° at 15 knots 10,000+ meters
Clouds
  • Clear skies
Temperature Dewpoint
25°C / 77°F 5°C / 41°F
Humidity Altimeter Pressure
28% 30.12" Hg 1020 hPa